Time;durP1;ratioP1;P1;durP2;ratioP2;P2;SDS_P1;SDS_P2;PMS_P1;PMS_P2;Temp;Humidity;BMP_temperature;BMP_pressure;BME280_temperature;BME280_humidity;BME280_pressure;Samples;Min_cycle;Max_cycle;Signal;HPM_P1;HPM_P2
2022/04/19 00:01:10;;;;;;;2.58;1.27;;;17.80;58.00;;;;;;10453251;28;20061;-54
2022/04/19 00:06:11;;;;;;;1.40;1.00;;;17.70;57.90;;;;;;10453241;28;20048;-53
2022/04/19 00:11:11;;;;;;;1.77;1.30;;;17.80;57.90;;;;;;10453023;28;20125;-52
2022/04/19 00:16:14;;;;;;;2.03;1.20;;;17.70;57.80;;;;;;10453135;28;20068;-54
2022/04/19 00:21:15;;;;;;;1.75;1.13;;;17.70;57.90;;;;;;10454506;28;20029;-50
2022/04/19 00:26:15;;;;;;;1.52;0.95;;;17.70;57.80;;;;;;10456173;28;20060;-51
2022/04/19 00:31:16;;;;;;;2.40;1.13;;;17.70;57.70;;;;;;10460230;28;20049;-52
2022/04/19 00:36:18;;;;;;;2.40;1.58;;;17.70;57.80;;;;;;10459992;28;20124;-51
2022/04/19 00:41:19;;;;;;;4.00;1.10;;;17.70;57.70;;;;;;10459686;28;20029;-51
2022/04/19 00:46:19;;;;;;;1.65;1.10;;;17.70;57.70;;;;;;10459540;28;20060;-52
2022/04/19 00:51:20;;;;;;;1.65;1.10;;;17.70;57.70;;;;;;10459675;28;20496;-50
2022/04/19 00:56:21;;;;;;;2.63;1.63;;;17.70;57.60;;;;;;10458757;28;20056;-51
2022/04/19 01:01:22;;;;;;;1.85;1.20;;;17.60;57.70;;;;;;10459098;28;20365;-52
2022/04/19 01:06:22;;;;;;;2.65;1.60;;;17.60;57.60;;;;;;10458704;28;20048;-52
2022/04/19 01:16:42;;;;;;;2.43;1.33;;;17.60;57.50;;;;;;10457888;28;20040;-54
2022/04/19 01:21:54;;;;;;;2.20;1.50;;;17.60;57.60;;;;;;10475326;28;20041;-54
2022/04/19 01:26:57;;;;;;;2.00;1.10;;;17.60;57.50;;;;;;10458171;28;20025;-53
2022/04/19 01:31:59;;;;;;;1.63;0.90;;;17.60;57.50;;;;;;10456632;28;20155;-54
2022/04/19 01:37:00;;;;;;;1.70;1.20;;;17.60;57.50;;;;;;10454966;28;20029;-53
2022/04/19 01:42:05;;;;;;;2.17;1.40;;;17.60;57.50;;;;;;10457601;28;20485;-51
2022/04/19 01:47:07;;;;;;;2.17;1.67;;;17.60;57.50;;;;;;10456917;28;20021;-53
2022/04/19 01:52:08;;;;;;;1.92;1.23;;;17.60;57.40;;;;;;10457292;28;20432;-53
2022/04/19 01:57:09;;;;;;;2.75;1.50;;;17.50;57.40;;;;;;10456401;28;20100;-53
2022/04/19 02:02:10;;;;;;;2.10;1.30;;;17.50;57.40;;;;;;10456766;28;20025;-50
2022/04/19 02:07:11;;;;;;;2.20;1.25;;;17.50;57.40;;;;;;10456148;28;20057;-48
2022/04/19 02:12:12;;;;;;;1.30;1.00;;;17.50;57.40;;;;;;10456198;28;20032;-52
2022/04/19 02:17:12;;;;;;;3.22;1.67;;;17.50;57.40;;;;;;10454398;28;20055;-52
2022/04/19 02:22:13;;;;;;;2.03;1.20;;;17.50;57.40;;;;;;10472667;28;20035;-53
2022/04/19 02:27:15;;;;;;;1.52;1.40;;;17.50;57.50;;;;;;10455470;28;20032;-52
2022/04/19 02:32:16;;;;;;;1.90;1.20;;;17.50;57.40;;;;;;10455427;28;20056;-53
2022/04/19 02:37:17;;;;;;;2.45;1.33;;;17.40;57.20;;;;;;10455089;28;20029;-54
2022/04/19 02:42:18;;;;;;;1.52;1.05;;;17.40;57.20;;;;;;10454896;28;20072;-54
2022/04/19 02:47:19;;;;;;;1.67;1.02;;;17.40;57.10;;;;;;10453338;28;20049;-54
2022/04/19 02:52:19;;;;;;;2.20;1.58;;;17.40;57.20;;;;;;10454960;28;20508;-53
2022/04/19 02:57:20;;;;;;;2.67;1.90;;;17.40;57.20;;;;;;10449358;28;20106;-53
2022/04/19 03:02:21;;;;;;;1.75;1.00;;;17.40;57.20;;;;;;10454628;28;20029;-52
2022/04/19 03:07:22;;;;;;;1.85;1.45;;;17.40;57.10;;;;;;10453840;28;20032;-52
2022/04/19 03:12:22;;;;;;;1.60;1.20;;;17.40;57.20;;;;;;10454428;28;20106;-53
2022/04/19 03:17:23;;;;;;;1.58;1.17;;;17.40;57.10;;;;;;10454034;28;20063;-52
2022/04/19 03:22:24;;;;;;;2.40;1.35;;;17.30;57.10;;;;;;10454101;28;20017;-51
2022/04/19 03:27:45;;;;;;;2.33;1.83;;;17.30;56.90;;;;;;10453835;28;20033;-52
2022/04/19 03:32:47;;;;;;;2.45;1.20;;;17.40;57.00;;;;;;10453378;28;20102;-54
2022/04/19 03:37:48;;;;;;;2.08;1.20;;;17.40;56.60;;;;;;10453404;28;20175;-52
2022/04/19 03:42:48;;;;;;;2.67;1.40;;;17.40;56.50;;;;;;10453848;28;20478;-52
2022/04/19 03:47:49;;;;;;;2.63;1.30;;;17.40;56.60;;;;;;10453488;28;20446;-55
2022/04/19 03:52:50;;;;;;;2.65;1.60;;;17.40;56.50;;;;;;10453467;28;20426;-53
2022/04/19 03:57:51;;;;;;;1.98;1.67;;;17.30;56.60;;;;;;10453047;28;20111;-53
2022/04/19 04:02:51;;;;;;;2.13;1.38;;;17.30;56.70;;;;;;10459500;28;20081;-54
2022/04/19 04:07:55;;;;;;;2.60;1.40;;;17.30;56.80;;;;;;10460979;28;20075;-51
2022/04/19 04:12:58;;;;;;;2.90;1.38;;;17.30;56.80;;;;;;10476238;28;20103;-53
2022/04/19 04:17:59;;;;;;;2.13;1.45;;;17.30;56.80;;;;;;10475696;28;20384;-53
2022/04/19 04:23:00;;;;;;;2.10;1.45;;;17.20;57.00;;;;;;10461660;28;20082;-55
2022/04/19 04:28:01;;;;;;;2.97;1.90;;;17.30;56.50;;;;;;10457920;28;20040;-51
2022/04/19 04:33:02;;;;;;;2.88;1.08;;;17.30;56.30;;;;;;10460332;28;20029;-51
2022/04/19 04:38:02;;;;;;;2.22;1.35;;;17.40;56.20;;;;;;10458510;28;20033;-54
2022/04/19 04:43:04;;;;;;;2.38;1.48;;;17.40;56.10;;;;;;10459955;28;20024;-52
2022/04/19 04:53:24;;;;;;;3.20;1.90;;;17.30;56.20;;;;;;10456200;28;20049;-55
2022/04/19 04:58:24;;;;;;;11.48;2.50;;;17.30;56.30;;;;;;10458537;28;20109;-55
2022/04/19 05:03:25;;;;;;;2.92;2.08;;;17.30;57.40;;;;;;10458074;28;20462;-51
2022/04/19 05:08:26;;;;;;;3.55;2.30;;;17.30;57.50;;;;;;10458161;28;20029;-51
2022/04/19 05:13:26;;;;;;;7.15;2.60;;;17.40;57.90;;;;;;10459087;28;20083;-50
2022/04/19 05:18:27;;;;;;;9.10;3.53;;;17.40;59.10;;;;;;10458844;28;20124;-55
2022/04/19 05:23:28;;;;;;;7.03;2.53;;;17.40;59.90;;;;;;10457949;28;20041;-50
2022/04/19 05:28:29;;;;;;;5.90;2.17;;;17.60;59.00;;;;;;10458101;28;20511;-47
2022/04/19 05:33:30;;;;;;;7.03;2.92;;;17.60;59.40;;;;;;10456578;28;20047;-47
2022/04/19 05:38:30;;;;;;;4.55;2.63;;;17.50;59.80;;;;;;10456234;28;20471;-49
2022/04/19 05:43:31;;;;;;;3.40;2.28;;;17.40;60.10;;;;;;10457591;28;20104;-53
2022/04/19 05:48:32;;;;;;;7.22;3.05;;;17.40;59.50;;;;;;10456910;28;20064;-53
2022/04/19 05:53:32;;;;;;;8.48;2.72;;;17.40;59.50;;;;;;10456907;28;20032;-50
2022/04/19 05:58:33;;;;;;;13.18;3.55;;;17.40;59.50;;;;;;10464575;28;20046;-52
2022/04/19 06:08:55;;;;;;;10.93;3.10;;;17.30;59.20;;;;;;10466531;28;20420;-52
2022/04/19 06:13:56;;;;;;;10.68;3.47;;;17.30;59.10;;;;;;10456628;28;20271;-48
2022/04/19 06:18:57;;;;;;;6.50;3.03;;;17.30;59.30;;;;;;10453620;28;20069;-49
2022/04/19 06:23:57;;;;;;;5.15;3.08;;;17.30;59.20;;;;;;10455724;28;20099;-49
2022/04/19 06:28:58;;;;;;;9.07;3.22;;;17.30;59.20;;;;;;10454782;28;20098;-50
2022/04/19 06:33:59;;;;;;;7.38;3.78;;;17.30;59.10;;;;;;10455168;28;20473;-47
2022/04/19 06:38:59;;;;;;;9.35;2.85;;;17.30;59.20;;;;;;10455221;28;20476;-49
2022/04/19 06:44:00;;;;;;;7.75;3.20;;;17.30;59.00;;;;;;10455438;28;20029;-48
2022/04/19 06:49:02;;;;;;;13.15;2.92;;;17.20;58.90;;;;;;10454679;28;20025;-48
2022/04/19 06:54:03;;;;;;;7.40;2.67;;;17.20;59.00;;;;;;10448422;28;20029;-48
2022/04/19 06:59:04;;;;;;;4.78;3.25;;;17.20;59.10;;;;;;10454259;28;20037;-47
2022/04/19 07:04:05;;;;;;;5.75;2.45;;;17.20;59.00;;;;;;10454369;28;20544;-49
2022/04/19 07:09:06;;;;;;;8.32;3.15;;;17.20;59.00;;;;;;10454622;28;20119;-48
2022/04/19 07:14:07;;;;;;;5.90;2.70;;;17.20;59.00;;;;;;10454507;28;20039;-48
2022/04/19 07:19:07;;;;;;;7.00;2.17;;;17.20;59.00;;;;;;10453352;28;20040;-48
2022/04/19 07:29:27;;;;;;;4.80;2.63;;;17.20;59.30;;;;;;10450623;28;20132;-47
2022/04/19 07:34:28;;;;;;;4.18;2.08;;;17.20;59.40;;;;;;10453564;28;20477;-47
2022/04/19 07:39:28;;;;;;;6.38;2.35;;;17.20;59.30;;;;;;10460092;28;20110;-47
2022/04/19 07:44:29;;;;;;;5.15;2.67;;;17.20;59.50;;;;;;10460243;28;20108;-47
2022/04/19 07:49:30;;;;;;;9.15;2.65;;;17.20;59.40;;;;;;10460688;28;20048;-50
2022/04/19 07:54:31;;;;;;;7.05;2.60;;;17.20;59.40;;;;;;10460137;28;20087;-50
2022/04/19 07:59:33;;;;;;;7.60;2.70;;;17.20;59.50;;;;;;10458188;28;20539;-48
2022/04/19 08:04:33;;;;;;;4.22;2.13;;;17.30;59.50;;;;;;10460406;28;20029;-47
2022/04/19 08:09:34;;;;;;;4.68;2.45;;;17.30;59.40;;;;;;10460829;28;20029;-48
2022/04/19 08:14:35;;;;;;;4.25;2.00;;;17.30;59.40;;;;;;10461059;28;20060;-46
2022/04/19 08:19:36;;;;;;;3.58;2.58;;;17.30;59.40;;;;;;10460759;28;20056;-46
2022/04/19 08:24:37;;;;;;;4.55;1.85;;;17.30;59.40;;;;;;10461660;28;20063;-47
2022/04/19 08:29:37;;;;;;;4.95;1.90;;;17.30;59.40;;;;;;10458980;28;20458;-47
2022/04/19 08:34:39;;;;;;;3.83;2.30;;;17.30;59.40;;;;;;10456552;28;20029;-46
2022/04/19 08:39:40;;;;;;;4.18;2.10;;;17.30;59.40;;;;;;10457558;28;20078;-47
2022/04/19 08:44:40;;;;;;;4.85;2.35;;;17.30;59.30;;;;;;10456964;28;20086;-50
2022/04/19 08:49:42;;;;;;;5.63;2.13;;;17.40;59.40;;;;;;10456441;28;20103;-47
2022/04/19 09:00:05;;;;;;;5.13;2.13;;;17.40;59.30;;;;;;10455848;28;20045;-47
2022/04/19 09:05:21;;;;;;;1.95;1.48;;;17.40;59.30;;;;;;10457012;28;20052;-47
2022/04/19 09:10:33;;;;;;;3.85;1.77;;;17.40;59.30;;;;;;10456578;28;20029;-48
2022/04/19 09:15:38;;;;;;;3.67;2.40;;;17.50;59.20;;;;;;10456519;28;20025;-49
2022/04/19 09:20:39;;;;;;;3.55;1.50;;;17.50;59.20;;;;;;10456930;28;20053;-47
2022/04/19 09:25:40;;;;;;;3.97;1.95;;;17.50;59.20;;;;;;10456373;28;20089;-48
2022/04/19 09:30:42;;;;;;;2.95;1.85;;;17.50;59.20;;;;;;10468321;28;110401;-47
2022/04/19 09:35:44;;;;;;;4.38;1.92;;;17.50;59.10;;;;;;10458141;28;20378;-49
2022/04/19 09:40:47;;;;;;;3.08;1.50;;;17.50;59.10;;;;;;10457527;28;20068;-47
2022/04/19 09:46:02;;;;;;;3.25;1.88;;;17.50;59.10;;;;;;10456867;28;20071;-47
2022/04/19 09:51:12;;;;;;;2.40;1.50;;;17.50;59.10;;;;;;10472604;28;20070;-48
2022/04/19 09:56:19;;;;;;;2.42;1.40;;;17.60;59.10;;;;;;10456507;28;20104;-49
2022/04/19 10:12:01;;;;;;;3.03;1.77;;;17.70;59.00;;;;;;10456106;28;20517;-48
2022/04/19 10:17:04;;;;;;;2.25;1.45;;;17.70;58.90;;;;;;10455737;28;20465;-46
2022/04/19 10:22:09;;;;;;;2.95;1.73;;;17.70;58.90;;;;;;10456028;28;20056;-47
2022/04/19 10:27:13;;;;;;;3.35;1.48;;;17.70;58.70;;;;;;10453911;28;20465;-47
2022/04/19 10:32:14;;;;;;;2.33;1.40;;;17.80;58.70;;;;;;10455482;28;20045;-47
2022/04/19 10:37:19;;;;;;;4.53;1.80;;;17.80;58.70;;;;;;10455580;28;20087;-47
2022/04/19 10:42:36;;;;;;;2.58;1.30;;;17.80;58.70;;;;;;10454991;28;20059;-47
2022/04/19 10:47:57;;;;;;;2.55;0.98;;;17.80;58.70;;;;;;10454796;28;20031;-48
2022/04/19 10:53:00;;;;;;;3.45;1.20;;;17.90;58.70;;;;;;10454573;28;20036;-47
2022/04/19 10:58:06;;;;;;;2.25;1.20;;;17.90;58.80;;;;;;10454841;28;20029;-49
2022/04/19 11:03:14;;;;;;;2.47;1.65;;;17.90;58.70;;;;;;10454649;28;20121;-49
2022/04/19 11:08:26;;;;;;;2.10;1.23;;;18.00;58.70;;;;;;10454184;28;20031;-47
2022/04/19 11:13:35;;;;;;;3.20;1.70;;;18.00;58.70;;;;;;10445661;28;20047;-47
2022/04/19 11:18:39;;;;;;;1.88;1.30;;;18.00;58.70;;;;;;10450428;28;20060;-46
2022/04/19 11:23:48;;;;;;;1.58;1.25;;;18.00;58.70;;;;;;10452341;28;20035;-48
2022/04/19 11:29:09;;;;;;;2.70;1.35;;;18.10;58.70;;;;;;10451338;28;20405;-48
2022/04/19 11:34:13;;;;;;;2.53;1.40;;;18.10;58.70;;;;;;10453762;28;20493;-46
2022/04/19 11:50:00;;;;;;;2.67;1.57;;;18.20;58.10;;;;;;10453549;28;20045;-47
2022/04/19 11:55:01;;;;;;;4.18;2.05;;;18.20;58.10;;;;;;10468030;28;20119;-49
2022/04/19 12:00:04;;;;;;;2.88;1.48;;;18.20;58.10;;;;;;10453177;28;20044;-49
2022/04/19 12:05:06;;;;;;;3.97;1.60;;;18.20;58.10;;;;;;10452306;28;20383;-49
2022/04/19 12:10:08;;;;;;;3.58;1.88;;;18.30;58.00;;;;;;10453061;28;20039;-49
2022/04/19 12:15:09;;;;;;;2.72;1.40;;;18.30;58.00;;;;;;10450127;28;20044;-50
2022/04/19 12:20:10;;;;;;;7.03;2.40;;;18.30;58.00;;;;;;10440472;28;20473;-50
2022/04/19 12:25:22;;;;;;;12.38;2.45;;;18.40;57.70;;;;;;10461368;28;20025;-51
2022/04/19 12:30:29;;;;;;;5.43;1.77;;;18.40;57.70;;;;;;10455575;28;20115;-52
2022/04/19 12:35:34;;;;;;;5.68;1.90;;;18.40;57.70;;;;;;10460181;28;20477;-49
2022/04/19 12:40:38;;;;;;;4.82;2.00;;;18.50;57.80;;;;;;10459859;28;20033;-51
2022/04/19 12:45:41;;;;;;;4.22;1.75;;;18.50;57.80;;;;;;10457591;28;20099;-48
2022/04/19 12:50:42;;;;;;;6.07;2.22;;;18.50;57.70;;;;;;10457827;28;20454;-49
2022/04/19 12:55:43;;;;;;;5.05;1.90;;;18.50;57.70;;;;;;10458770;28;20500;-47
2022/04/19 13:00:44;;;;;;;5.50;1.83;;;18.50;57.70;;;;;;10454629;28;20068;-47
2022/04/19 13:16:23;;;;;;;3.37;1.23;;;18.60;57.60;;;;;;10450168;28;20132;-48
2022/04/19 13:21:26;;;;;;;4.63;1.40;;;18.70;57.50;;;;;;10457523;28;20037;-49
2022/04/19 13:26:28;;;;;;;4.63;2.00;;;18.70;57.30;;;;;;10456029;28;20135;-49
2022/04/19 13:31:28;;;;;;;2.65;1.60;;;18.70;57.40;;;;;;10448558;28;20057;-50
2022/04/19 13:36:29;;;;;;;2.20;1.25;;;18.70;57.60;;;;;;10449691;28;20439;-48
2022/04/19 13:41:30;;;;;;;2.83;1.30;;;18.70;57.50;;;;;;10454926;28;20024;-52
2022/04/19 13:46:30;;;;;;;2.70;1.33;;;18.70;57.40;;;;;;10472632;28;20029;-53
2022/04/19 13:51:34;;;;;;;2.63;1.30;;;18.70;57.40;;;;;;10456509;28;20387;-51
2022/04/19 13:56:35;;;;;;;2.47;1.42;;;18.80;57.50;;;;;;10455418;28;20033;-48
2022/04/19 14:01:36;;;;;;;2.97;1.90;;;18.80;57.30;;;;;;10454275;28;20474;-48
2022/04/19 14:06:39;;;;;;;2.08;1.17;;;18.80;57.50;;;;;;10455767;28;20075;-48
2022/04/19 14:11:40;;;;;;;1.80;0.95;;;18.80;57.50;;;;;;10456369;28;20035;-49
2022/04/19 14:16:41;;;;;;;2.85;1.10;;;18.80;57.60;;;;;;10455741;28;20036;-48
2022/04/19 14:21:41;;;;;;;1.88;1.20;;;18.80;57.60;;;;;;10473319;28;20083;-49
2022/04/19 14:26:42;;;;;;;3.95;1.08;;;18.80;57.70;;;;;;10455783;28;20064;-51
2022/04/19 14:37:02;;;;;;;2.10;1.00;;;18.70;57.80;;;;;;10455872;28;20044;-49
2022/04/19 14:42:03;;;;;;;2.47;0.98;;;18.70;58.00;;;;;;10455344;28;20029;-51
2022/04/19 14:47:04;;;;;;;2.17;1.00;;;18.70;58.00;;;;;;10455108;28;20591;-51
2022/04/19 14:52:15;;;;;;;1.85;1.20;;;18.70;58.10;;;;;;10453696;28;20025;-52
2022/04/19 14:57:16;;;;;;;2.05;1.05;;;18.60;58.20;;;;;;10454536;28;20462;-49
2022/04/19 15:02:17;;;;;;;1.90;0.88;;;18.60;58.20;;;;;;10451619;28;20441;-49
2022/04/19 15:07:17;;;;;;;1.50;1.08;;;18.60;58.20;;;;;;10452141;28;20115;-48
2022/04/19 15:12:21;;;;;;;2.65;1.15;;;18.60;58.10;;;;;;10453348;28;20109;-50
2022/04/19 15:17:22;;;;;;;1.90;1.30;;;18.60;58.10;;;;;;10453106;28;20059;-50
2022/04/19 15:22:23;;;;;;;2.78;0.82;;;18.60;58.00;;;;;;10453918;28;20140;-56
2022/04/19 15:27:25;;;;;;;9.13;2.00;;;18.60;57.70;;;;;;10438438;28;20025;-52
2022/04/19 15:32:25;;;;;;;2.22;1.20;;;18.50;57.20;;;;;;10453966;28;20060;-56
2022/04/19 15:37:27;;;;;;;2.92;1.42;;;18.60;57.00;;;;;;10453872;28;20767;-46
2022/04/19 15:42:28;;;;;;;2.85;1.08;;;18.60;56.90;;;;;;10452004;28;20037;-47
2022/04/19 15:47:29;;;;;;;7.28;1.60;;;18.60;56.80;;;;;;10453504;28;20025;-47
2022/04/19 15:52:29;;;;;;;5.38;1.70;;;18.60;56.70;;;;;;10452768;28;20637;-47
2022/04/19 15:57:30;;;;;;;7.50;1.50;;;18.60;56.60;;;;;;10455777;28;20060;-47
2022/04/19 16:02:31;;;;;;;17.83;4.32;;;18.60;56.50;;;;;;10461188;28;20033;-47
2022/04/19 16:07:32;;;;;;;13.15;3.78;;;18.60;56.30;;;;;;10459793;28;20457;-47
2022/04/19 16:12:33;;;;;;;10.07;2.13;;;18.70;58.50;;;;;;10461231;28;20049;-48
2022/04/19 16:28:11;;;;;;;15.95;2.28;;;18.80;58.90;;;;;;10449610;28;20041;-46
2022/04/19 16:33:12;;;;;;;12.15;2.33;;;18.70;59.80;;;;;;10460166;28;20132;-48
2022/04/19 16:38:13;;;;;;;6.13;1.85;;;18.70;59.90;;;;;;10459501;28;20048;-52
2022/04/19 16:43:14;;;;;;;22.05;3.15;;;18.70;58.20;;;;;;10458694;28;20475;-51
2022/04/19 16:48:15;;;;;;;18.17;3.45;;;18.60;58.60;;;;;;10459040;28;20115;-52
2022/04/19 16:53:22;;;;;;;20.70;3.63;;;18.60;58.90;;;;;;10459652;28;20103;-50
2022/04/19 16:58:22;;;;;;;15.98;2.88;;;18.70;59.20;;;;;;10459101;28;20393;-48
2022/04/19 17:08:42;;;;;;;11.85;2.45;;;18.70;59.80;;;;;;10474420;28;20116;-48
2022/04/19 17:13:43;;;;;;;21.58;4.70;;;18.60;59.60;;;;;;10474905;28;20108;-46
2022/04/19 17:18:44;;;;;;;19.10;3.05;;;18.60;59.80;;;;;;10458169;28;20108;-47
2022/04/19 17:23:45;;;;;;;13.00;2.05;;;18.60;59.30;;;;;;10467732;28;20108;-48
2022/04/19 17:28:46;;;;;;;12.00;2.58;;;18.50;59.30;;;;;;10457281;28;20052;-49
2022/04/19 17:33:47;;;;;;;10.90;2.83;;;18.50;59.00;;;;;;10467836;28;20037;-48
2022/04/19 17:38:48;;;;;;;11.25;2.40;;;18.50;58.90;;;;;;10474194;28;20067;-49
2022/04/19 17:43:49;;;;;;;9.57;2.60;;;18.50;58.90;;;;;;10466666;28;20508;-53
2022/04/19 17:48:50;;;;;;;12.23;1.98;;;18.50;59.00;;;;;;10471039;28;20036;-54
2022/04/19 17:59:10;;;;;;;12.90;1.87;;;18.40;59.00;;;;;;10456983;28;20029;-52
2022/04/19 18:04:11;;;;;;;7.40;1.48;;;18.40;59.00;;;;;;10455865;28;20021;-52
2022/04/19 18:09:12;;;;;;;7.88;1.98;;;18.40;59.10;;;;;;10455328;28;20044;-53
2022/04/19 18:14:12;;;;;;;6.90;1.73;;;18.40;59.10;;;;;;10456442;28;20061;-54
2022/04/19 18:19:15;;;;;;;5.55;1.98;;;18.40;59.00;;;;;;10454370;28;20516;-53
2022/04/19 18:29:34;;;;;;;7.27;1.60;;;18.30;59.00;;;;;;10456499;28;20049;-51
2022/04/19 18:34:35;;;;;;;14.07;2.80;;;18.40;59.00;;;;;;10449529;28;21052;-54
2022/04/19 18:39:37;;;;;;;4.90;1.73;;;18.40;58.90;;;;;;10454306;28;20033;-53
2022/04/19 18:44:38;;;;;;;10.07;1.77;;;18.40;59.00;;;;;;10455037;28;20609;-53
2022/04/19 18:49:39;;;;;;;6.65;1.75;;;18.40;59.10;;;;;;10453410;28;20119;-54
2022/04/19 18:54:40;;;;;;;6.65;1.77;;;18.40;59.10;;;;;;10454946;28;20035;-52
2022/04/19 18:59:40;;;;;;;7.03;1.63;;;18.40;59.10;;;;;;10453376;28;20025;-52
2022/04/19 19:04:41;;;;;;;7.90;1.70;;;18.40;59.20;;;;;;10453884;28;20493;-53
2022/04/19 19:09:42;;;;;;;6.13;1.90;;;18.50;59.30;;;;;;10454610;28;20029;-52
2022/04/19 19:14:44;;;;;;;10.93;1.60;;;18.40;59.30;;;;;;10454249;28;20452;-54
2022/04/19 19:19:45;;;;;;;6.57;1.45;;;18.50;60.20;;;;;;10454164;28;20052;-53
2022/04/19 19:24:45;;;;;;;5.57;1.45;;;18.50;59.90;;;;;;10461878;28;20025;-53
2022/04/19 19:29:46;;;;;;;9.05;2.30;;;18.40;59.90;;;;;;10455128;28;20128;-51
2022/04/19 19:34:47;;;;;;;5.07;1.67;;;18.40;59.90;;;;;;10461598;28;20364;-52
2022/04/19 19:39:48;;;;;;;6.55;1.98;;;18.50;60.10;;;;;;10466415;28;20063;-50
2022/04/19 19:44:49;;;;;;;5.90;1.40;;;18.50;60.00;;;;;;10480103;28;20040;-48
2022/04/19 19:49:49;;;;;;;3.90;0.70;;;18.40;59.80;;;;;;10469604;28;20075;-52
2022/04/19 19:54:50;;;;;;;4.38;1.08;;;18.40;59.80;;;;;;10469438;28;20060;-48
2022/04/19 19:59:51;;;;;;;2.65;1.10;;;18.40;59.60;;;;;;10474579;28;20639;-49
2022/04/19 20:04:53;;;;;;;4.05;0.90;;;18.40;59.50;;;;;;10478427;28;20029;-51
2022/04/19 20:09:54;;;;;;;4.10;1.58;;;18.30;59.40;;;;;;10471318;28;20599;-48
2022/04/19 20:14:57;;;;;;;6.30;1.73;;;18.30;59.30;;;;;;10458344;28;20120;-49
2022/04/19 20:19:58;;;;;;;7.97;1.10;;;18.30;59.30;;;;;;10457995;28;20037;-50
2022/04/19 20:24:59;;;;;;;3.50;1.00;;;18.30;59.70;;;;;;10467585;28;20496;-50
2022/04/19 20:30:00;;;;;;;4.70;1.17;;;18.30;59.10;;;;;;10460510;28;20095;-50
2022/04/19 20:35:01;;;;;;;2.80;1.20;;;18.30;59.00;;;;;;10459917;28;20029;-50
2022/04/19 20:40:03;;;;;;;3.70;0.90;;;18.30;58.90;;;;;;10460279;28;20116;-50
2022/04/19 20:45:04;;;;;;;3.42;0.80;;;18.20;58.80;;;;;;10459430;28;20021;-48
2022/04/19 20:50:11;;;;;;;2.35;1.00;;;18.20;58.70;;;;;;10459834;28;20112;-51
2022/04/19 20:55:13;;;;;;;3.22;0.95;;;18.20;58.60;;;;;;10459082;28;20078;-49
2022/04/19 21:00:19;;;;;;;4.93;1.58;;;18.20;58.70;;;;;;10459532;28;20158;-50
2022/04/19 21:05:22;;;;;;;1.98;1.08;;;18.20;58.60;;;;;;10459044;28;20036;-50
2022/04/19 21:10:23;;;;;;;3.20;1.35;;;18.20;58.50;;;;;;10459192;28;20027;-50
2022/04/19 21:15:27;;;;;;;1.88;0.80;;;18.20;58.40;;;;;;10459280;28;20113;-50
2022/04/19 21:20:28;;;;;;;3.45;0.95;;;18.20;58.40;;;;;;10458416;28;20096;-48
2022/04/19 21:25:29;;;;;;;1.05;0.68;;;18.10;58.30;;;;;;10466440;28;20029;-51
2022/04/19 21:30:29;;;;;;;2.88;1.02;;;18.10;58.80;;;;;;10456941;28;20075;-49
2022/04/19 21:35:30;;;;;;;3.25;1.10;;;18.10;58.20;;;;;;10458047;28;20535;-51
2022/04/19 21:40:31;;;;;;;3.65;0.93;;;18.10;58.10;;;;;;10456539;28;20473;-48
2022/04/19 21:45:32;;;;;;;4.18;1.00;;;18.10;58.00;;;;;;10457946;28;20535;-50
2022/04/19 21:50:33;;;;;;;2.50;1.02;;;18.10;57.90;;;;;;10457234;28;20086;-49
2022/04/19 21:55:33;;;;;;;3.97;0.80;;;18.10;57.90;;;;;;10456457;28;20040;-48
2022/04/19 22:01:18;;;;;;;2.78;0.80;;;18.10;57.90;;;;;;10457087;28;20469;-50
2022/04/19 22:06:20;;;;;;;4.60;1.05;;;18.10;57.80;;;;;;10455937;28;20095;-48
2022/04/19 22:11:21;;;;;;;1.35;0.70;;;18.10;57.80;;;;;;10456556;28;20108;-48
2022/04/19 22:16:21;;;;;;;2.30;0.70;;;18.00;57.80;;;;;;10456209;28;20405;-48
2022/04/19 22:21:22;;;;;;;1.63;0.88;;;18.00;57.80;;;;;;10457334;28;20428;-50
2022/04/19 22:26:23;;;;;;;1.55;0.93;;;18.00;57.90;;;;;;10471558;28;20056;-49
2022/04/19 22:31:24;;;;;;;2.53;0.90;;;18.00;57.80;;;;;;10455742;28;20045;-50
2022/04/19 22:36:25;;;;;;;2.55;0.70;;;18.00;57.80;;;;;;10454386;28;20029;-49
2022/04/19 22:41:26;;;;;;;1.55;0.70;;;18.00;57.80;;;;;;10455365;28;20025;-50
2022/04/19 22:46:26;;;;;;;1.98;1.35;;;18.00;57.80;;;;;;10455374;28;20253;-49
2022/04/19 22:51:28;;;;;;;1.67;1.00;;;18.00;57.80;;;;;;10453661;28;20032;-48
2022/04/19 22:56:28;;;;;;;1.42;0.57;;;18.00;57.70;;;;;;10455216;28;20024;-49
2022/04/19 23:01:29;;;;;;;1.63;0.88;;;18.00;57.70;;;;;;10454439;28;20116;-48
2022/04/19 23:06:30;;;;;;;2.22;1.02;;;18.00;57.70;;;;;;10453383;28;20043;-49
2022/04/19 23:11:30;;;;;;;2.45;0.80;;;18.00;57.60;;;;;;10454047;28;20437;-48
2022/04/19 23:16:31;;;;;;;2.95;1.17;;;17.90;57.50;;;;;;10454497;28;20142;-48
2022/04/19 23:21:32;;;;;;;2.15;1.17;;;17.90;57.40;;;;;;10454879;28;20091;-49
2022/04/19 23:31:52;;;;;;;1.60;0.90;;;17.90;57.40;;;;;;10453799;28;20045;-48
2022/04/19 23:36:53;;;;;;;2.22;0.82;;;17.90;57.40;;;;;;10453795;28;20384;-48
2022/04/19 23:41:54;;;;;;;1.88;0.88;;;17.90;57.50;;;;;;10453816;28;20076;-49
2022/04/19 23:46:54;;;;;;;1.50;1.00;;;17.90;57.60;;;;;;10454043;28;20044;-52
2022/04/19 23:51:55;;;;;;;2.17;1.20;;;17.90;57.60;;;;;;10435633;28;20084;-47
2022/04/19 23:56:56;;;;;;;1.85;0.95;;;17.90;57.60;;;;;;10453943;28;20033;-48
